TAF Text Data
IDs:
Format:
Raw Decoded Include METAR

Data at: 1057 UTC 21 Jan 2020

KAGS 210913Z 2109/2206 03006KT P6SM FEW060 SCT100
  FM211300 01012G20KT P6SM FEW060 SCT100
  FM220000 01008KT P6SM SKC